createdAt,value
2023-04-13T00:03:18.320Z,996.23
2023-04-13T00:04:16.012Z,996.21
2023-04-13T00:05:15.924Z,996.19
2023-04-13T00:06:15.865Z,996.19
2023-04-13T00:07:15.828Z,996.25
2023-04-13T00:08:15.788Z,996.28
2023-04-13T00:09:15.760Z,996.33
2023-04-13T00:10:15.782Z,996.31
2023-04-13T00:11:15.692Z,996.30
2023-04-13T00:12:15.659Z,996.30
2023-04-13T00:13:15.609Z,996.34
2023-04-13T00:14:15.578Z,996.36
2023-04-13T00:15:15.542Z,996.38
2023-04-13T00:16:15.730Z,996.41
2023-04-13T00:17:15.485Z,996.45
2023-04-13T00:18:15.456Z,996.46
2023-04-13T00:19:15.417Z,996.51
2023-04-13T00:20:15.375Z,996.57
2023-04-13T00:21:15.376Z,996.56
2023-04-13T00:22:15.359Z,996.55
2023-04-13T00:23:15.288Z,996.58
2023-04-13T00:24:15.234Z,996.52
2023-04-13T00:25:15.204Z,996.50
2023-04-13T00:26:15.167Z,996.51
2023-04-13T00:27:15.136Z,996.58
2023-04-13T00:28:15.174Z,996.65
2023-04-13T00:29:15.064Z,996.67
2023-04-13T00:30:15.034Z,996.68
2023-04-13T00:31:15.026Z,996.73
2023-04-13T00:32:14.977Z,996.73
2023-04-13T00:33:15.529Z,996.75
2023-04-13T00:34:14.954Z,996.78
2023-04-13T00:35:14.890Z,996.82
2023-04-13T00:36:14.829Z,996.89
2023-04-13T00:37:14.839Z,996.96
2023-04-13T00:38:14.768Z,996.93
2023-04-13T00:39:14.746Z,996.95
2023-04-13T00:40:14.743Z,996.98
2023-04-13T00:41:14.647Z,996.95
2023-04-13T00:42:14.614Z,996.95
2023-04-13T00:43:14.615Z,996.92
2023-04-13T00:44:14.558Z,996.94
2023-04-13T00:45:14.643Z,996.96
2023-04-13T00:46:14.512Z,996.95
2023-04-13T00:47:14.444Z,996.99
2023-04-13T00:48:14.458Z,997.08
2023-04-13T00:49:14.374Z,997.05
2023-04-13T00:50:14.404Z,997.09
2023-04-13T00:51:14.299Z,997.11
2023-04-13T00:52:14.263Z,997.15
2023-04-13T00:53:14.231Z,997.23
2023-04-13T00:54:14.206Z,997.24
2023-04-13T00:55:15.023Z,997.35
2023-04-13T00:56:14.193Z,997.43
2023-04-13T00:57:14.091Z,997.55
2023-04-13T00:58:14.062Z,997.59
2023-04-13T00:59:14.036Z,997.61
2023-04-13T01:00:13.996Z,997.66
2023-04-13T01:01:13.989Z,997.67
2023-04-13T01:02:14.064Z,997.73
2023-04-13T01:03:14.006Z,997.75
2023-04-13T01:04:13.897Z,997.78
2023-04-13T01:05:13.826Z,997.71
2023-04-13T01:06:14.614Z,997.73
2023-04-13T01:07:13.741Z,997.70
2023-04-13T01:08:13.778Z,997.74
2023-04-13T01:09:14.493Z,997.73
2023-04-13T01:10:13.668Z,997.77
2023-04-13T01:11:13.618Z,997.73
2023-04-13T01:12:13.577Z,997.75
2023-04-13T01:13:13.608Z,997.75
2023-04-13T01:14:13.501Z,997.76
2023-04-13T01:15:13.478Z,997.72
2023-04-13T01:16:13.463Z,997.76
2023-04-13T01:17:13.409Z,997.74
2023-04-13T01:18:13.420Z,997.75
2023-04-13T01:19:13.350Z,997.74
2023-04-13T01:20:13.341Z,997.78
2023-04-13T01:21:13.280Z,997.87
2023-04-13T01:22:13.234Z,997.88
2023-04-13T01:23:13.196Z,997.86
2023-04-13T01:24:13.206Z,997.92
2023-04-13T01:25:13.111Z,997.98
2023-04-13T01:26:13.073Z,998.05
2023-04-13T01:27:13.056Z,998.17
2023-04-13T01:28:13.019Z,998.22
2023-04-13T01:29:12.968Z,998.27
2023-04-13T01:30:13.013Z,998.28
2023-04-13T01:31:12.921Z,998.21
2023-04-13T01:32:12.893Z,998.21
2023-04-13T01:33:12.908Z,998.25
2023-04-13T01:34:12.801Z,998.27
2023-04-13T01:35:12.765Z,998.27
2023-04-13T01:36:12.805Z,998.25
2023-04-13T01:37:12.716Z,998.14
2023-04-13T01:38:12.666Z,998.15
2023-04-13T01:39:12.618Z,998.12
2023-04-13T01:40:12.591Z,998.09
2023-04-13T01:41:12.552Z,998.12
2023-04-13T01:42:12.569Z,998.15
2023-04-13T01:43:13.004Z,998.14
2023-04-13T01:44:12.447Z,998.16
2023-04-13T01:45:12.473Z,998.19
2023-04-13T01:46:12.387Z,998.26
2023-04-13T01:47:14.999Z,998.33
2023-04-13T01:48:12.320Z,998.36
2023-04-13T01:49:12.286Z,998.35
2023-04-13T01:50:12.311Z,998.38
2023-04-13T01:51:12.207Z,998.42
2023-04-13T01:52:12.161Z,998.44
2023-04-13T01:53:12.126Z,998.44
2023-04-13T01:54:12.089Z,998.46
2023-04-13T01:55:12.151Z,998.46
2023-04-13T01:56:12.020Z,998.45
2023-04-13T01:57:11.996Z,998.45
2023-04-13T01:58:11.958Z,998.47
2023-04-13T01:59:11.917Z,998.44
2023-04-13T02:00:11.884Z,998.47
2023-04-13T02:01:11.950Z,998.48
2023-04-13T02:02:11.914Z,998.46
2023-04-13T02:03:12.692Z,998.47
2023-04-13T02:04:11.868Z,998.46
2023-04-13T02:05:11.708Z,998.46
2023-04-13T02:06:11.765Z,998.49
2023-04-13T02:07:11.633Z,998.52
2023-04-13T02:08:11.611Z,998.44
2023-04-13T02:09:11.562Z,998.44
2023-04-13T02:10:11.529Z,998.45
2023-04-13T02:11:11.554Z,998.41
2023-04-13T02:12:11.454Z,998.38
2023-04-13T02:13:11.467Z,998.41
2023-04-13T02:14:11.398Z,998.38
2023-04-13T02:15:11.351Z,998.38
2023-04-13T02:16:11.384Z,998.43
2023-04-13T02:17:11.353Z,998.43
2023-04-13T02:18:12.006Z,998.45
2023-04-13T02:19:11.214Z,998.47
2023-04-13T02:20:11.225Z,998.44
2023-04-13T02:21:11.152Z,998.42
2023-04-13T02:22:11.168Z,998.40
2023-04-13T02:23:11.071Z,998.42
2023-04-13T02:24:11.037Z,998.43
2023-04-13T02:25:10.989Z,998.38
2023-04-13T02:26:10.957Z,998.38
2023-04-13T02:27:10.932Z,998.42
2023-04-13T02:28:10.934Z,998.44
2023-04-13T02:29:10.860Z,998.43
2023-04-13T02:30:10.818Z,998.37
2023-04-13T02:31:10.801Z,998.38
2023-04-13T02:32:10.888Z,998.41
2023-04-13T02:33:10.707Z,998.51
2023-04-13T02:34:10.728Z,998.59
2023-04-13T02:35:10.641Z,998.65
2023-04-13T02:36:10.605Z,998.70
2023-04-13T02:37:10.634Z,998.65
2023-04-13T02:38:10.684Z,998.66
2023-04-13T02:39:10.502Z,998.67
2023-04-13T02:40:10.554Z,998.68
2023-04-13T02:41:10.428Z,998.67
2023-04-13T02:42:10.421Z,998.65
2023-04-13T02:43:10.400Z,998.62
2023-04-13T02:44:10.330Z,998.59
2023-04-13T02:45:10.288Z,998.60
2023-04-13T02:46:10.384Z,998.60
2023-04-13T02:47:10.220Z,998.63
2023-04-13T02:48:10.179Z,998.63
2023-04-13T02:49:10.153Z,998.67
2023-04-13T02:50:10.117Z,998.64
2023-04-13T02:51:10.066Z,998.63
2023-04-13T02:52:10.090Z,998.67
2023-04-13T02:53:10.012Z,998.72
2023-04-13T02:54:09.970Z,998.70
2023-04-13T02:55:09.954Z,998.67
2023-04-13T02:56:09.898Z,998.69
2023-04-13T02:57:09.917Z,998.69
2023-04-13T02:58:09.832Z,998.67
2023-04-13T02:59:09.820Z,998.71
2023-04-13T03:00:09.748Z,998.73
2023-04-13T03:01:09.773Z,998.74
2023-04-13T03:02:09.698Z,998.71
2023-04-13T03:03:09.724Z,998.74
2023-04-13T03:04:09.780Z,998.71
2023-04-13T03:05:09.575Z,998.66
2023-04-13T03:06:09.568Z,998.65
2023-04-13T03:07:09.516Z,998.66
2023-04-13T03:08:09.474Z,998.65
2023-04-13T03:09:09.484Z,998.65
2023-04-13T03:10:09.407Z,998.71
2023-04-13T03:11:09.362Z,998.68
2023-04-13T03:12:09.330Z,998.69
2023-04-13T03:13:09.301Z,998.75
2023-04-13T03:14:09.317Z,998.75
2023-04-13T03:15:09.228Z,998.75
2023-04-13T03:16:09.176Z,998.78
2023-04-13T03:17:09.229Z,998.77
2023-04-13T03:18:09.119Z,998.74
2023-04-13T03:19:09.132Z,998.77
2023-04-13T03:20:09.153Z,998.73
2023-04-13T03:21:09.011Z,998.74
2023-04-13T03:22:08.991Z,998.76
2023-04-13T03:23:08.939Z,998.78
2023-04-13T03:24:08.969Z,998.76
2023-04-13T03:25:08.875Z,998.74
2023-04-13T03:26:08.834Z,998.71
2023-04-13T03:27:08.796Z,998.70
2023-04-13T03:28:08.765Z,998.67
2023-04-13T03:29:08.725Z,998.63
2023-04-13T03:30:08.748Z,998.60
2023-04-13T03:31:08.754Z,998.59
2023-04-13T03:32:08.639Z,998.62
2023-04-13T03:33:08.587Z,998.60
2023-04-13T03:34:08.553Z,998.56
2023-04-13T03:35:08.582Z,998.55
2023-04-13T03:36:08.494Z,998.53
2023-04-13T03:37:08.458Z,998.55
2023-04-13T03:38:08.407Z,998.57
2023-04-13T03:39:08.379Z,998.55
2023-04-13T03:40:08.324Z,998.58
2023-04-13T03:41:09.020Z,998.58
2023-04-13T03:42:08.275Z,998.60
2023-04-13T03:43:08.237Z,998.64
2023-04-13T03:44:08.197Z,998.64
2023-04-13T03:45:08.159Z,998.66
2023-04-13T03:46:08.133Z,998.62
2023-04-13T03:47:08.186Z,998.65
2023-04-13T03:48:08.107Z,998.62
2023-04-13T03:49:08.014Z,998.67
2023-04-13T03:50:07.979Z,998.67
2023-04-13T03:51:07.934Z,998.67
2023-04-13T03:52:07.915Z,998.73
2023-04-13T03:53:07.933Z,998.72
2023-04-13T03:54:07.842Z,998.79
2023-04-13T03:55:07.817Z,998.76
2023-04-13T03:56:07.762Z,998.81
2023-04-13T03:57:07.749Z,998.87
2023-04-13T03:58:07.714Z,998.85
2023-04-13T03:59:14.519Z,998.83
2023-04-13T04:00:07.642Z,998.83
2023-04-13T04:01:07.615Z,998.86
2023-04-13T04:02:07.633Z,998.81
2023-04-13T04:03:07.585Z,998.80
2023-04-13T04:04:07.598Z,998.86
2023-04-13T04:05:07.598Z,998.87
2023-04-13T04:06:07.441Z,998.84
2023-04-13T04:07:07.380Z,998.88
2023-04-13T04:08:07.330Z,998.86
2023-04-13T04:09:07.303Z,998.88
2023-04-13T04:10:07.256Z,998.88
2023-04-13T04:11:07.283Z,998.87
2023-04-13T04:12:07.189Z,998.86
2023-04-13T04:13:07.146Z,998.91
2023-04-13T04:14:07.120Z,998.92
2023-04-13T04:15:07.087Z,998.95
2023-04-13T04:16:07.213Z,998.90
2023-04-13T04:17:07.121Z,998.99
2023-04-13T04:18:07.012Z,998.95
2023-04-13T04:19:06.940Z,998.99
2023-04-13T04:20:06.918Z,999.00
2023-04-13T04:21:06.887Z,999.02
2023-04-13T04:22:06.828Z,998.98
2023-04-13T04:23:06.865Z,998.97
2023-04-13T04:24:06.759Z,998.95
2023-04-13T04:25:06.737Z,998.95
2023-04-13T04:26:06.704Z,998.88
2023-04-13T04:27:06.691Z,998.93
2023-04-13T04:28:06.646Z,998.92
2023-04-13T04:29:06.674Z,998.92
2023-04-13T04:30:06.538Z,998.87
2023-04-13T04:31:06.517Z,998.91
2023-04-13T04:32:06.597Z,998.97
2023-04-13T04:33:06.485Z,998.99
2023-04-13T04:34:06.457Z,999.00
2023-04-13T04:35:06.376Z,999.03
2023-04-13T04:36:06.320Z,999.02
2023-04-13T04:37:17.869Z,998.96
2023-04-13T04:38:06.269Z,998.93
2023-04-13T04:39:06.223Z,998.94
2023-04-13T04:40:06.248Z,998.90
2023-04-13T04:41:06.159Z,998.93
2023-04-13T04:42:06.118Z,998.96
2023-04-13T04:43:06.085Z,999.00
2023-04-13T04:44:07.028Z,998.96
2023-04-13T04:45:06.032Z,998.95
2023-04-13T04:46:06.043Z,998.92
2023-04-13T04:47:05.943Z,998.89
2023-04-13T04:48:06.045Z,998.93
2023-04-13T04:49:05.863Z,998.90
2023-04-13T04:50:05.822Z,998.91
2023-04-13T04:51:05.794Z,998.95
2023-04-13T04:52:05.752Z,998.92
2023-04-13T04:53:05.781Z,998.95
2023-04-13T04:54:05.679Z,998.95
2023-04-13T04:55:05.648Z,998.96
2023-04-13T04:56:05.620Z,998.96
2023-04-13T04:57:05.576Z,999.01
2023-04-13T04:58:05.550Z,998.98
2023-04-13T04:59:05.573Z,998.99
2023-04-13T05:00:05.469Z,998.98
2023-04-13T05:01:05.461Z,998.95
2023-04-13T05:02:05.419Z,998.92
2023-04-13T05:03:06.204Z,998.90
2023-04-13T05:04:05.330Z,998.88
2023-04-13T05:05:05.379Z,998.86
2023-04-13T05:06:05.256Z,998.91
2023-04-13T05:07:05.258Z,998.93
2023-04-13T05:08:05.210Z,999.00
2023-04-13T05:09:05.155Z,999.03
2023-04-13T05:10:05.107Z,999.04
2023-04-13T05:11:05.352Z,999.01
2023-04-13T05:12:05.044Z,999.02
2023-04-13T05:13:05.017Z,998.97
2023-04-13T05:14:05.005Z,999.00
2023-04-13T05:15:04.944Z,999.02
2023-04-13T05:16:04.907Z,999.01
2023-04-13T05:17:05.229Z,999.05
2023-04-13T05:18:04.863Z,999.02
2023-04-13T05:19:04.795Z,999.04
2023-04-13T05:20:04.763Z,999.06
2023-04-13T05:21:04.721Z,999.07
2023-04-13T05:22:04.692Z,999.05
2023-04-13T05:23:04.718Z,999.07
2023-04-13T05:24:05.589Z,999.10
2023-04-13T05:25:04.604Z,999.18
2023-04-13T05:26:04.547Z,999.21
2023-04-13T05:27:04.595Z,999.20
2023-04-13T05:28:04.481Z,999.25
2023-04-13T05:29:04.738Z,999.22
2023-04-13T05:30:04.445Z,999.25
2023-04-13T05:31:04.386Z,999.24
2023-04-13T05:32:04.410Z,999.29
2023-04-13T05:33:04.334Z,999.28
2023-04-13T05:34:04.303Z,999.32
2023-04-13T05:35:04.313Z,999.37
2023-04-13T05:36:04.197Z,999.38
2023-04-13T05:37:04.178Z,999.40
2023-04-13T05:38:04.137Z,999.38
2023-04-13T05:39:04.125Z,999.44
2023-04-13T05:40:04.051Z,999.46
2023-04-13T05:41:04.087Z,999.45
2023-04-13T05:42:03.993Z,999.49
2023-04-13T05:43:03.968Z,999.55
2023-04-13T05:44:03.933Z,999.52
2023-04-13T05:45:03.883Z,999.57
2023-04-13T05:46:03.946Z,999.55
2023-04-13T05:47:03.873Z,999.61
2023-04-13T05:48:03.874Z,999.61
2023-04-13T05:49:03.748Z,999.60
2023-04-13T05:50:03.702Z,999.62
2023-04-13T05:51:03.675Z,999.64
2023-04-13T05:52:03.636Z,999.63
2023-04-13T05:53:03.659Z,999.66
2023-04-13T05:54:03.665Z,999.63
2023-04-13T05:55:03.525Z,999.71
2023-04-13T05:56:03.493Z,999.74
2023-04-13T05:57:03.467Z,999.73
2023-04-13T05:58:03.466Z,999.79
2023-04-13T05:59:03.440Z,999.80
2023-04-13T06:00:03.357Z,999.83
2023-04-13T06:01:03.318Z,999.83
2023-04-13T06:02:03.389Z,999.90
2023-04-13T06:03:04.330Z,999.89
2023-04-13T06:04:03.299Z,999.91
2023-04-13T06:05:03.334Z,999.94
2023-04-13T06:06:03.156Z,999.92
2023-04-13T06:07:03.145Z,999.99
2023-04-13T06:08:03.153Z,999.96
2023-04-13T06:09:03.044Z,999.97
2023-04-13T06:10:03.010Z,999.94
2023-04-13T06:11:03.177Z,999.99
2023-04-13T06:12:03.018Z,999.91
2023-04-13T06:13:02.905Z,999.96
2023-04-13T06:14:02.899Z,999.99
2023-04-13T06:15:02.837Z,999.99
2023-04-13T06:16:02.819Z,1000.00
2023-04-13T06:17:02.910Z,999.96
2023-04-13T06:18:02.814Z,1000.05
2023-04-13T06:19:02.943Z,1000.05
2023-04-13T06:20:02.666Z,1000.09
2023-04-13T06:21:02.671Z,1000.17
2023-04-13T06:22:02.609Z,1000.15
2023-04-13T06:23:02.620Z,1000.14
2023-04-13T06:24:02.882Z,1000.12
2023-04-13T06:25:02.539Z,1000.13
2023-04-13T06:26:05.084Z,1000.09
2023-04-13T06:27:02.424Z,1000.15
2023-04-13T06:28:02.507Z,1000.16
2023-04-13T06:29:02.463Z,1000.18
2023-04-13T06:30:02.334Z,1000.16
2023-04-13T06:31:02.406Z,1000.16
2023-04-13T06:32:02.326Z,1000.18
2023-04-13T06:33:02.338Z,1000.14
2023-04-13T06:34:02.201Z,1000.16
2023-04-13T06:35:02.177Z,1000.16
2023-04-13T06:36:02.164Z,1000.16
2023-04-13T06:37:02.189Z,1000.18
2023-04-13T06:38:02.152Z,1000.18
2023-04-13T06:39:02.235Z,1000.23
2023-04-13T06:40:02.000Z,1000.24
2023-04-13T06:41:02.013Z,1000.23
2023-04-13T06:42:01.997Z,1000.29
2023-04-13T06:43:01.914Z,1000.23
2023-04-13T06:44:03.969Z,1000.26
2023-04-13T06:45:01.845Z,1000.28
2023-04-13T06:46:01.845Z,1000.30
2023-04-13T06:47:01.761Z,1000.33
2023-04-13T06:48:01.767Z,1000.39
2023-04-13T06:49:01.939Z,1000.35
2023-04-13T06:50:01.707Z,1000.40
2023-04-13T06:51:01.696Z,1000.48
2023-04-13T06:52:01.593Z,1000.46
2023-04-13T06:53:01.568Z,1000.47
2023-04-13T06:54:01.535Z,1000.49
2023-04-13T06:55:01.554Z,1000.49
2023-04-13T06:56:01.452Z,1000.52
2023-04-13T06:57:01.433Z,1000.52
2023-04-13T06:58:01.411Z,1000.57
2023-04-13T06:59:02.693Z,1000.55
2023-04-13T07:00:01.340Z,1000.54
2023-04-13T07:01:01.371Z,1000.54
2023-04-13T07:02:01.356Z,1000.60
2023-04-13T07:03:01.396Z,1000.59
2023-04-13T07:04:01.289Z,1000.57
2023-04-13T07:05:01.296Z,1000.55
2023-04-13T07:06:01.124Z,1000.54
2023-04-13T07:07:01.143Z,1000.55
2023-04-13T07:08:01.105Z,1000.50
2023-04-13T07:09:01.199Z,1000.59
2023-04-13T07:10:01.015Z,1000.56
2023-04-13T07:11:01.008Z,1000.61
2023-04-13T07:12:00.943Z,1000.56
2023-04-13T07:13:00.899Z,1000.58
2023-04-13T07:14:00.866Z,1000.59
2023-04-13T07:15:00.858Z,1000.56
2023-04-13T07:16:00.917Z,1000.56
2023-04-13T07:17:00.780Z,1000.50
2023-04-13T07:18:00.791Z,1000.54
2023-04-13T07:19:00.907Z,1000.51
2023-04-13T07:20:00.680Z,1000.58
2023-04-13T07:21:00.634Z,1000.61
2023-04-13T07:22:01.520Z,1000.57
2023-04-13T07:23:00.576Z,1000.53
2023-04-13T07:24:00.534Z,1000.58
2023-04-13T07:25:00.525Z,1000.63
2023-04-13T07:26:00.484Z,1000.51
2023-04-13T07:27:00.525Z,1000.57
2023-04-13T07:28:00.474Z,1000.58
2023-04-13T07:29:00.492Z,1000.59
2023-04-13T07:30:00.345Z,1000.64
2023-04-13T07:31:00.405Z,1000.63
2023-04-13T07:32:00.616Z,1000.65
2023-04-13T07:33:00.462Z,1000.66
2023-04-13T07:34:00.222Z,1000.65
2023-04-13T07:35:00.188Z,1000.74
2023-04-13T07:36:00.163Z,1000.70
2023-04-13T07:37:00.125Z,1000.74
2023-04-13T07:38:00.112Z,1000.80
2023-04-13T07:39:00.387Z,1000.79
2023-04-13T07:40:00.109Z,1000.78
2023-04-13T07:40:59.991Z,1000.77
2023-04-13T07:41:59.961Z,1000.76
2023-04-13T07:42:59.924Z,1000.75
2023-04-13T07:43:59.901Z,1000.72
2023-04-13T07:44:59.914Z,1000.68
2023-04-13T07:45:59.837Z,1000.67
2023-04-13T07:46:59.913Z,1000.69
2023-04-13T07:47:59.856Z,1000.73
2023-04-13T07:48:59.876Z,1000.71
2023-04-13T07:49:59.688Z,1000.70
2023-04-13T07:50:59.710Z,1000.72
2023-04-13T07:51:59.636Z,1000.73
2023-04-13T07:52:59.612Z,1000.80
2023-04-13T07:53:59.566Z,1000.74
2023-04-13T07:54:59.547Z,1000.75
2023-04-13T07:55:59.500Z,1000.79
2023-04-13T07:56:59.742Z,1000.77
2023-04-13T07:57:59.450Z,1000.78
2023-04-13T07:58:59.521Z,1000.81
2023-04-13T07:59:59.379Z,1000.80
2023-04-13T08:00:59.378Z,1000.78
2023-04-13T08:01:59.439Z,1000.79
2023-04-13T08:02:59.445Z,1000.80
2023-04-13T08:03:59.444Z,1000.83
2023-04-13T08:04:59.356Z,1000.84
2023-04-13T08:05:59.306Z,1000.89
2023-04-13T08:06:59.159Z,1000.89
2023-04-13T08:07:59.191Z,1000.91
2023-04-13T08:08:59.233Z,1000.92
2023-04-13T08:09:59.065Z,1000.97
2023-04-13T08:10:59.054Z,1000.91
2023-04-13T08:11:59.005Z,1001.01
2023-04-13T08:12:58.985Z,1001.03
2023-04-13T08:13:58.982Z,1001.05
2023-04-13T08:14:58.913Z,1001.01
2023-04-13T08:15:58.897Z,1001.07
2023-04-13T08:16:58.899Z,1001.04
2023-04-13T08:17:58.892Z,1001.09
2023-04-13T08:18:58.947Z,1001.13
2023-04-13T08:19:58.844Z,1001.08
2023-04-13T08:20:58.729Z,1001.13
2023-04-13T08:21:58.704Z,1001.17
2023-04-13T08:22:58.663Z,1001.18
2023-04-13T08:23:58.667Z,1001.13
2023-04-13T08:24:58.662Z,1001.18
2023-04-13T08:25:58.574Z,1001.19
2023-04-13T08:26:58.545Z,1001.16
2023-04-13T08:27:59.245Z,1001.13
2023-04-13T08:28:58.855Z,1001.18
2023-04-13T08:29:58.449Z,1001.22
2023-04-13T08:30:58.471Z,1001.19
2023-04-13T08:31:58.406Z,1001.26
2023-04-13T08:32:58.414Z,1001.25
2023-04-13T08:33:58.356Z,1001.30
2023-04-13T08:34:58.291Z,1001.31
2023-04-13T08:35:58.280Z,1001.32
2023-04-13T08:36:58.290Z,1001.29
2023-04-13T08:37:58.210Z,1001.28
2023-04-13T08:38:58.388Z,1001.26
2023-04-13T08:39:58.143Z,1001.30
2023-04-13T08:40:58.116Z,1001.31
2023-04-13T08:41:58.085Z,1001.30
2023-04-13T08:42:58.112Z,1001.28
2023-04-13T08:43:58.300Z,1001.31
2023-04-13T08:44:57.987Z,1001.31
2023-04-13T08:45:58.000Z,1001.31
2023-04-13T08:46:57.917Z,1001.32
2023-04-13T08:47:57.945Z,1001.36
2023-04-13T08:48:58.298Z,1001.35
2023-04-13T08:49:57.825Z,1001.36
2023-04-13T08:51:03.590Z,1001.30
2023-04-13T08:51:57.776Z,1001.32
2023-04-13T08:52:57.741Z,1001.34
2023-04-13T08:53:57.716Z,1001.30
2023-04-13T08:54:57.728Z,1001.30
2023-04-13T08:55:57.681Z,1001.26
2023-04-13T08:56:57.614Z,1001.26
2023-04-13T08:57:57.614Z,1001.27
2023-04-13T08:58:57.803Z,1001.28
2023-04-13T08:59:57.526Z,1001.30
2023-04-13T09:00:57.575Z,1001.30
2023-04-13T09:01:57.527Z,1001.26
2023-04-13T09:03:04.575Z,1001.34
2023-04-13T09:03:57.490Z,1001.35
2023-04-13T09:04:57.981Z,1001.34
2023-04-13T09:05:57.367Z,1001.35
2023-04-13T09:06:57.641Z,1001.33
2023-04-13T09:07:57.378Z,1001.39
2023-04-13T09:08:57.572Z,1001.27
2023-04-13T09:09:57.369Z,1001.27
2023-04-13T09:10:57.453Z,1001.30
2023-04-13T09:11:57.165Z,1001.34
2023-04-13T09:12:57.449Z,1001.32
2023-04-13T09:13:57.568Z,1001.28
2023-04-13T09:14:57.929Z,1001.36
2023-04-13T09:15:57.164Z,1001.36
2023-04-13T09:16:57.296Z,1001.32
2023-04-13T09:17:57.264Z,1001.34
2023-04-13T09:18:57.416Z,1001.35
2023-04-13T09:19:57.098Z,1001.31
2023-04-13T09:20:57.105Z,1001.35
2023-04-13T09:21:56.984Z,1001.37
2023-04-13T09:22:57.134Z,1001.40
2023-04-13T09:23:56.927Z,1001.40
2023-04-13T09:24:57.171Z,1001.41
2023-04-13T09:25:57.321Z,1001.41
2023-04-13T09:26:56.985Z,1001.41
2023-04-13T09:27:56.926Z,1001.36
2023-04-13T09:28:57.188Z,1001.46
2023-04-13T09:29:57.603Z,1001.38
2023-04-13T09:30:57.134Z,1001.42
2023-04-13T09:31:56.585Z,1001.45
2023-04-13T09:32:56.823Z,1001.49
2023-04-13T09:33:56.807Z,1001.45
2023-04-13T09:34:56.592Z,1001.42
2023-04-13T09:35:56.787Z,1001.44
2023-04-13T09:36:58.598Z,1001.54
2023-04-13T09:37:56.509Z,1001.46
2023-04-13T09:38:56.538Z,1001.49
2023-04-13T09:39:56.533Z,1001.47
2023-04-13T09:40:56.513Z,1001.51
2023-04-13T09:41:56.785Z,1001.51
2023-04-13T09:42:56.501Z,1001.55
2023-04-13T09:43:56.320Z,1001.52
2023-04-13T09:44:56.443Z,1001.50
2023-04-13T09:45:56.439Z,1001.45
2023-04-13T09:46:56.339Z,1001.41
2023-04-13T09:47:56.593Z,1001.44
2023-04-13T09:48:56.422Z,1001.40
2023-04-13T09:49:56.283Z,1001.41
2023-04-13T09:50:56.283Z,1001.41
2023-04-13T09:51:56.139Z,1001.47
2023-04-13T09:52:56.155Z,1001.48
2023-04-13T09:53:56.256Z,1001.51
2023-04-13T09:54:56.154Z,1001.57
2023-04-13T09:55:56.050Z,1001.55
2023-04-13T09:56:55.929Z,1001.53
2023-04-13T09:57:56.017Z,1001.55
2023-04-13T09:58:56.036Z,1001.60
2023-04-13T09:59:56.984Z,1001.61
2023-04-13T10:00:56.418Z,1001.62
2023-04-13T10:01:55.903Z,1001.58
2023-04-13T10:02:55.836Z,1001.60
2023-04-13T10:03:55.875Z,1001.53
2023-04-13T10:04:55.970Z,1001.52
2023-04-13T10:06:00.082Z,1001.56
2023-04-13T10:06:55.729Z,1001.56
2023-04-13T10:07:55.694Z,1001.61
2023-04-13T10:08:55.630Z,1001.44
2023-04-13T10:09:55.785Z,1001.60
2023-04-13T10:10:55.700Z,1001.56
2023-04-13T10:11:55.579Z,1001.61
2023-04-13T10:12:55.594Z,1001.58
2023-04-13T10:13:55.524Z,1001.61
2023-04-13T10:14:55.463Z,1001.64
2023-04-13T10:15:56.801Z,1001.61
2023-04-13T10:16:55.672Z,1001.60
2023-04-13T10:17:55.238Z,1001.67
2023-04-13T10:18:55.428Z,1001.69
2023-04-13T10:19:55.382Z,1001.68
2023-04-13T10:20:55.333Z,1001.67
2023-04-13T10:21:55.354Z,1001.70
2023-04-13T10:22:55.495Z,1001.74
2023-04-13T10:23:55.185Z,1001.76
2023-04-13T10:24:55.220Z,1001.79
2023-04-13T10:25:55.155Z,1001.73
2023-04-13T10:26:55.180Z,1001.71
2023-04-13T10:27:55.166Z,1001.69
2023-04-13T10:28:55.214Z,1001.65
2023-04-13T10:29:55.189Z,1001.65
2023-04-13T10:30:55.098Z,1001.69
2023-04-13T10:31:56.174Z,1001.63
2023-04-13T10:32:55.496Z,1001.65
2023-04-13T10:33:54.953Z,1001.67
2023-04-13T10:34:54.920Z,1001.69
2023-04-13T10:35:54.933Z,1001.66
2023-04-13T10:36:55.386Z,1001.68
2023-04-13T10:37:54.670Z,1001.67
2023-04-13T10:38:54.799Z,1001.67
2023-04-13T10:39:55.195Z,1001.69
2023-04-13T10:40:54.782Z,1001.71
2023-04-13T10:41:54.737Z,1001.70
2023-04-13T10:42:54.561Z,1001.65
2023-04-13T10:43:54.678Z,1001.68
2023-04-13T10:44:54.689Z,1001.73
2023-04-13T10:45:54.548Z,1001.73
2023-04-13T10:46:54.566Z,1001.71
2023-04-13T10:47:54.562Z,1001.69
2023-04-13T10:48:54.641Z,1001.70
2023-04-13T10:49:54.459Z,1001.70
2023-04-13T10:50:54.395Z,1001.75
2023-04-13T10:51:54.466Z,1001.78
2023-04-13T10:52:54.518Z,1001.80
2023-04-13T10:53:54.320Z,1001.78
2023-04-13T10:54:54.241Z,1001.79
2023-04-13T10:55:54.251Z,1001.78
2023-04-13T10:56:54.221Z,1001.83
2023-04-13T10:57:54.369Z,1001.84
2023-04-13T10:58:54.155Z,1001.88
2023-04-13T10:59:58.809Z,1001.90
2023-04-13T11:00:54.102Z,1001.93
2023-04-13T11:01:54.221Z,1001.94
2023-04-13T11:02:54.326Z,1001.93
2023-04-13T11:04:04.625Z,1001.96
2023-04-13T11:04:54.166Z,1001.92
2023-04-13T11:05:53.954Z,1001.91
2023-04-13T11:06:53.939Z,1001.90
2023-04-13T11:07:55.650Z,1001.88
2023-04-13T11:09:02.503Z,1001.88
2023-04-13T11:09:53.842Z,1001.96
2023-04-13T11:10:53.826Z,1001.95
2023-04-13T11:11:53.839Z,1001.96
2023-04-13T11:12:53.775Z,1001.95
2023-04-13T11:13:53.905Z,1001.92
2023-04-13T11:14:53.702Z,1001.95
2023-04-13T11:15:53.697Z,1001.98
2023-04-13T11:16:58.511Z,1002.02
2023-04-13T11:17:53.648Z,1001.98
2023-04-13T11:18:53.594Z,1002.01
2023-04-13T11:19:53.426Z,1002.01
2023-04-13T11:20:53.336Z,1001.98
2023-04-13T11:21:53.299Z,1002.00
2023-04-13T11:22:53.277Z,1002.03
2023-04-13T11:23:53.254Z,1002.03
2023-04-13T11:24:53.228Z,1002.05
2023-04-13T11:25:56.503Z,1002.06
2023-04-13T11:26:53.164Z,1002.06
2023-04-13T11:27:53.141Z,1002.07
2023-04-13T11:28:53.111Z,1002.08
2023-04-13T11:29:53.079Z,1002.12
2023-04-13T11:30:53.048Z,1002.12
2023-04-13T11:31:53.113Z,1002.10
2023-04-13T11:32:53.038Z,1002.14
2023-04-13T11:33:52.983Z,1002.12
2023-04-13T11:34:52.948Z,1002.12
2023-04-13T11:35:52.911Z,1002.13
2023-04-13T11:36:52.882Z,1002.11
2023-04-13T11:37:52.921Z,1002.11
2023-04-13T11:38:52.835Z,1002.12
2023-04-13T11:39:52.798Z,1002.15
2023-04-13T11:40:58.940Z,1002.16
2023-04-13T11:41:52.750Z,1002.20
2023-04-13T11:42:52.716Z,1002.21
2023-04-13T11:43:52.743Z,1002.19
2023-04-13T11:44:52.652Z,1002.22
2023-04-13T11:45:52.652Z,1002.21
2023-04-13T11:46:52.601Z,1002.23
2023-04-13T11:47:52.611Z,1002.22
2023-04-13T11:48:52.537Z,1002.24
2023-04-13T11:49:52.813Z,1002.22
2023-04-13T11:50:52.482Z,1002.21
2023-04-13T11:51:52.456Z,1002.21
2023-04-13T11:52:52.424Z,1002.24
2023-04-13T11:53:52.393Z,1002.23
2023-04-13T11:54:52.420Z,1002.23
2023-04-13T11:55:53.888Z,1002.23
2023-04-13T11:56:52.329Z,1002.21
2023-04-13T11:57:52.442Z,1002.24
2023-04-13T11:58:52.319Z,1002.24
2023-04-13T11:59:52.238Z,1002.26
2023-04-13T12:00:52.252Z,1002.27
2023-04-13T12:02:01.597Z,1002.25
2023-04-13T12:03:01.917Z,1002.18
2023-04-13T12:04:01.523Z,1002.18
2023-04-13T12:04:52.163Z,1002.23
2023-04-13T12:05:52.184Z,1002.22
2023-04-13T12:06:52.289Z,1002.23
2023-04-13T12:07:52.438Z,1002.24
2023-04-13T12:08:56.705Z,1002.25
2023-04-13T12:09:56.897Z,1002.25
2023-04-13T12:12:01.924Z,1002.18
2023-04-13T12:12:56.939Z,1002.17
2023-04-13T12:14:06.355Z,1002.22
2023-04-13T12:15:04.782Z,1002.15
2023-04-13T12:16:06.241Z,1002.16
2023-04-13T12:17:57.353Z,1002.20
2023-04-13T12:18:52.363Z,1002.20
2023-04-13T12:19:52.202Z,1002.21
2023-04-13T12:20:52.227Z,1002.23
2023-04-13T12:21:52.692Z,1002.25